Terminal Aerodrome Forecast
Issued by NWS Charleston, WV

Current Version | Previous Version | Graphics & Text | Print | Product List | Glossary On
Versions: 1 2 3 4 5 6 7 8 9 10 11 12 13 14 15 16 17 18 19 20 21 22 23 24 25 26 27 28 29 30
000
FTUS41 KRLX 181300 AAA
TAFEKN
TAF AMD
KEKN 181300Z 1813/1912 27014G24KT P6SM -SN BKN035
      TEMPO 1813/1814 2SM -SN BKN025
     FM181700 27009G16KT P6SM BKN035
     FM182000 27008KT P6SM BKN040
     FM190200 26005KT P6SM -SN BKN025=

USA.gov is the U.S. government's official web portal to all federal, state and local government web resources and services.